NOZ1151 EDDL-ENGM
Flight info
| Callsign | NOZ1151 |
|---|---|
| Flight time | 1h 22m |
| Altitude | 39000 |
| Route | MEVEL4T/23L MEVEL L179 OSNAD M170 BASUM DCT DOSUR DCT AMSEV DCT PIPEX DCT ULMUG DCT RIPAM |
| Aircraft | B38M/M-SDE2E3GHIJ1LRWXY/LB2 |
Departure
| Time | 2026-05-05 12:54 |
|---|---|
| Airport | Düsseldorf Airport (EDDL) |
Arrival
| Time | 2026-05-05 14:17 |
|---|---|
| Airport | Oslo-Gardermoen International Airport (ENGM) |
| Time | Latitude | Longitude | Altitude | Speed | Heading |
|---|---|---|---|---|---|
| 2026-05-05 12:13 | 51.27904 | 6.76238 | 131 ft | 0 kts | 61° |
| 2026-05-05 12:40 | 51.27904 | 6.76237 | 131 ft | 1 kts | 61° |
| 2026-05-05 12:40 | 51.27892 | 6.76203 | 125 ft | 4 kts | 61° |
| 2026-05-05 12:41 | 51.27879 | 6.76166 | 128 ft | 4 kts | 61° |
| 2026-05-05 12:41 | 51.27867 | 6.76130 | 125 ft | 4 kts | 61° |
| 2026-05-05 12:41 | 51.27857 | 6.76100 | 127 ft | 3 kts | 60° |
| 2026-05-05 12:41 | 51.27842 | 6.76065 | 125 ft | 4 kts | 44° |
| 2026-05-05 12:42 | 51.27821 | 6.76045 | 129 ft | 4 kts | 6° |
| 2026-05-05 12:42 | 51.27797 | 6.76044 | 127 ft | 4 kts | 1° |
| 2026-05-05 12:42 | 51.27770 | 6.76043 | 131 ft | 4 kts | 1° |
| 2026-05-05 12:42 | 51.27762 | 6.76043 | 132 ft | 0 kts | 1° |
| 2026-05-05 12:48 | 51.27766 | 6.76043 | 132 ft | 3 kts | 1° |
| 2026-05-05 12:48 | 51.27823 | 6.76045 | 129 ft | 12 kts | 1° |
| 2026-05-05 12:48 | 51.27912 | 6.76048 | 130 ft | 14 kts | 1° |
| 2026-05-05 12:49 | 51.28012 | 6.76047 | 128 ft | 15 kts | 0° |
| 2026-05-05 12:49 | 51.28096 | 6.76025 | 129 ft | 12 kts | 322° |
| 2026-05-05 12:49 | 51.28092 | 6.75941 | 132 ft | 9 kts | 231° |
| 2026-05-05 12:49 | 51.28044 | 6.75845 | 132 ft | 13 kts | 233° |
| 2026-05-05 12:50 | 51.27983 | 6.75714 | 132 ft | 16 kts | 233° |
| 2026-05-05 12:50 | 51.27916 | 6.75572 | 130 ft | 14 kts | 233° |
| 2026-05-05 12:50 | 51.27850 | 6.75434 | 129 ft | 15 kts | 233° |
| 2026-05-05 12:50 | 51.27861 | 6.75334 | 127 ft | 11 kts | 332° |
| 2026-05-05 12:51 | 51.27889 | 6.75311 | 127 ft | 0 kts | 333° |
| 2026-05-05 12:52 | 51.27915 | 6.75290 | 123 ft | 10 kts | 333° |
| 2026-05-05 12:52 | 51.27992 | 6.75268 | 123 ft | 12 kts | 38° |
| 2026-05-05 12:53 | 51.28047 | 6.75382 | 126 ft | 19 kts | 53° |
| 2026-05-05 12:53 | 51.28184 | 6.75667 | 127 ft | 60 kts | 52° |
| 2026-05-05 12:53 | 51.28582 | 6.76506 | 127 ft | 127 kts | 53° |
| 2026-05-05 12:53 | 51.29221 | 6.77843 | 283 ft | 166 kts | 50° |
| 2026-05-05 12:54 | 51.30585 | 6.80789 | 1724 ft | 176 kts | 50° |
| 2026-05-05 12:54 | 51.31392 | 6.82462 | 1992 ft | 204 kts | 51° |
| 2026-05-05 12:54 | 51.32330 | 6.84431 | 2269 ft | 234 kts | 52° |
| 2026-05-05 12:55 | 51.33300 | 6.86500 | 3056 ft | 234 kts | 53° |
| 2026-05-05 12:55 | 51.34295 | 6.88656 | 3867 ft | 243 kts | 49° |
| 2026-05-05 12:55 | 51.35640 | 6.90179 | 4977 ft | 244 kts | 21° |
| 2026-05-05 12:55 | 51.37304 | 6.90936 | 5943 ft | 254 kts | 18° |
| 2026-05-05 12:56 | 51.38980 | 6.92004 | 6867 ft | 262 kts | 23° |
| 2026-05-05 12:56 | 51.40675 | 6.93126 | 7915 ft | 266 kts | 23° |
| 2026-05-05 12:56 | 51.42445 | 6.94261 | 8694 ft | 283 kts | 22° |
| 2026-05-05 12:56 | 51.44331 | 6.95450 | 9432 ft | 298 kts | 22° |
| 2026-05-05 12:57 | 51.46271 | 6.96658 | 10402 ft | 300 kts | 22° |
| 2026-05-05 12:57 | 51.48227 | 6.97868 | 11324 ft | 305 kts | 22° |
| 2026-05-05 12:57 | 51.50237 | 6.99107 | 12151 ft | 313 kts | 21° |
| 2026-05-05 12:57 | 51.52328 | 7.00393 | 12678 ft | 332 kts | 21° |
| 2026-05-05 12:58 | 51.54534 | 7.01752 | 13185 ft | 347 kts | 21° |
| 2026-05-05 12:58 | 51.56832 | 7.03167 | 13783 ft | 359 kts | 21° |
| 2026-05-05 12:58 | 51.59144 | 7.04730 | 14499 ft | 362 kts | 30° |
| 2026-05-05 12:58 | 51.61078 | 7.07286 | 15256 ft | 361 kts | 52° |
| 2026-05-05 12:59 | 51.62494 | 7.10621 | 16008 ft | 364 kts | 53° |
| 2026-05-05 12:59 | 51.64127 | 7.13765 | 16587 ft | 370 kts | 51° |
| 2026-05-05 12:59 | 51.65781 | 7.16993 | 17237 ft | 375 kts | 52° |
| 2026-05-05 13:00 | 51.69094 | 7.23609 | 18455 ft | 384 kts | 52° |
| 2026-05-05 13:00 | 51.70768 | 7.26993 | 19033 ft | 386 kts | 53° |
| 2026-05-05 13:01 | 51.75847 | 7.37328 | 20609 ft | 397 kts | 53° |
| 2026-05-05 13:01 | 51.77567 | 7.40839 | 21132 ft | 400 kts | 53° |
| 2026-05-05 13:01 | 51.79299 | 7.44379 | 21681 ft | 403 kts | 53° |
| 2026-05-05 13:01 | 51.81042 | 7.47945 | 22213 ft | 406 kts | 53° |
| 2026-05-05 13:02 | 51.82776 | 7.51499 | 22724 ft | 410 kts | 53° |
| 2026-05-05 13:02 | 51.84549 | 7.55137 | 23225 ft | 414 kts | 53° |
| 2026-05-05 13:02 | 51.86337 | 7.58811 | 23727 ft | 417 kts | 53° |
| 2026-05-05 13:02 | 51.88137 | 7.62517 | 24179 ft | 420 kts | 53° |
| 2026-05-05 13:03 | 51.89950 | 7.66253 | 24640 ft | 424 kts | 53° |
| 2026-05-05 13:03 | 51.91776 | 7.70022 | 25099 ft | 427 kts | 53° |
| 2026-05-05 13:03 | 51.93616 | 7.73827 | 25555 ft | 431 kts | 53° |
| 2026-05-05 13:03 | 51.95469 | 7.77663 | 26025 ft | 434 kts | 53° |
| 2026-05-05 13:04 | 51.97337 | 7.81536 | 26464 ft | 438 kts | 53° |
| 2026-05-05 13:04 | 51.99221 | 7.85448 | 26884 ft | 442 kts | 53° |
| 2026-05-05 13:04 | 52.01121 | 7.89399 | 27244 ft | 447 kts | 53° |
| 2026-05-05 13:04 | 52.03041 | 7.93398 | 27664 ft | 451 kts | 52° |
| 2026-05-05 13:05 | 52.04978 | 7.97440 | 28014 ft | 456 kts | 52° |
| 2026-05-05 13:05 | 52.06930 | 8.01520 | 28436 ft | 459 kts | 52° |
| 2026-05-05 13:05 | 52.08937 | 8.05573 | 28876 ft | 462 kts | 46° |
| 2026-05-05 13:05 | 52.11425 | 8.08897 | 29292 ft | 464 kts | 30° |
| 2026-05-05 13:06 | 52.14355 | 8.11050 | 29683 ft | 464 kts | 14° |
| 2026-05-05 13:06 | 52.17527 | 8.11944 | 30032 ft | 464 kts | 2° |
| 2026-05-05 13:06 | 52.20754 | 8.12403 | 30380 ft | 467 kts | 1° |
| 2026-05-05 13:06 | 52.24002 | 8.12822 | 30747 ft | 469 kts | 1° |
| 2026-05-05 13:07 | 52.27260 | 8.13211 | 31123 ft | 471 kts | 360° |
| 2026-05-05 13:07 | 52.30539 | 8.13576 | 31484 ft | 473 kts | 359° |
| 2026-05-05 13:07 | 52.33837 | 8.13937 | 31836 ft | 476 kts | 359° |
| 2026-05-05 13:07 | 52.37149 | 8.14298 | 32193 ft | 478 kts | 359° |
| 2026-05-05 13:08 | 52.40478 | 8.14660 | 32561 ft | 481 kts | 359° |
| 2026-05-05 13:08 | 52.43822 | 8.15026 | 32925 ft | 482 kts | 359° |
| 2026-05-05 13:08 | 52.47163 | 8.15391 | 33415 ft | 481 kts | 359° |
| 2026-05-05 13:08 | 52.50502 | 8.15757 | 33932 ft | 480 kts | 358° |
| 2026-05-05 13:09 | 52.53834 | 8.16124 | 34300 ft | 480 kts | 358° |
| 2026-05-05 13:09 | 52.57169 | 8.16490 | 34649 ft | 480 kts | 358° |
| 2026-05-05 13:09 | 52.60498 | 8.16858 | 35113 ft | 479 kts | 359° |
| 2026-05-05 13:09 | 52.63820 | 8.17224 | 35518 ft | 478 kts | 359° |
| 2026-05-05 13:10 | 52.67136 | 8.17590 | 35906 ft | 477 kts | 359° |
| 2026-05-05 13:10 | 52.70446 | 8.17956 | 36290 ft | 476 kts | 359° |
| 2026-05-05 13:10 | 52.73751 | 8.18322 | 36688 ft | 476 kts | 359° |
| 2026-05-05 13:10 | 52.77004 | 8.18683 | 37052 ft | 475 kts | 360° |
| 2026-05-05 13:11 | 52.80299 | 8.19049 | 37417 ft | 474 kts | 0° |
| 2026-05-05 13:11 | 52.83585 | 8.19414 | 37771 ft | 473 kts | 0° |
| 2026-05-05 13:11 | 52.86865 | 8.19780 | 38122 ft | 472 kts | 0° |
| 2026-05-05 13:11 | 52.90141 | 8.20145 | 38467 ft | 471 kts | 0° |
| 2026-05-05 13:12 | 52.93408 | 8.20509 | 38746 ft | 471 kts | 1° |
| 2026-05-05 13:12 | 52.96681 | 8.20875 | 38913 ft | 472 kts | 1° |
| 2026-05-05 13:12 | 53.02193 | 8.21493 | 38927 ft | 475 kts | 1° |
| 2026-05-05 13:13 | 53.08791 | 8.22235 | 38928 ft | 475 kts | 1° |
| 2026-05-05 13:13 | 53.15345 | 8.22974 | 38926 ft | 475 kts | 1° |
| 2026-05-05 13:14 | 53.21944 | 8.23721 | 38923 ft | 475 kts | 1° |
| 2026-05-05 13:14 | 53.28541 | 8.24469 | 38930 ft | 475 kts | 1° |
| 2026-05-05 13:15 | 53.35140 | 8.25221 | 38927 ft | 475 kts | 1° |
| 2026-05-05 13:15 | 53.41738 | 8.25975 | 38940 ft | 475 kts | 1° |
| 2026-05-05 13:16 | 53.48341 | 8.26730 | 38945 ft | 475 kts | 1° |
| 2026-05-05 13:16 | 53.54928 | 8.27487 | 38936 ft | 474 kts | 1° |
| 2026-05-05 13:17 | 53.61513 | 8.28246 | 38942 ft | 474 kts | 1° |
| 2026-05-05 13:17 | 53.68094 | 8.29007 | 38947 ft | 474 kts | 1° |
| 2026-05-05 13:18 | 53.74676 | 8.29770 | 38950 ft | 474 kts | 1° |
| 2026-05-05 13:18 | 53.81253 | 8.30536 | 38950 ft | 474 kts | 1° |
| 2026-05-05 13:19 | 53.87834 | 8.31304 | 38947 ft | 474 kts | 1° |
| 2026-05-05 13:19 | 53.94406 | 8.32074 | 38947 ft | 474 kts | 1° |
| 2026-05-05 13:20 | 54.00980 | 8.32845 | 38946 ft | 473 kts | 0° |
| 2026-05-05 13:20 | 54.07538 | 8.33618 | 38956 ft | 472 kts | 0° |
| 2026-05-05 13:21 | 54.14052 | 8.34388 | 38953 ft | 472 kts | 0° |
| 2026-05-05 13:21 | 54.20652 | 8.35171 | 38955 ft | 472 kts | 0° |
| 2026-05-05 13:22 | 54.27158 | 8.35945 | 38958 ft | 471 kts | 0° |
| 2026-05-05 13:22 | 54.33701 | 8.36726 | 38958 ft | 471 kts | 0° |
| 2026-05-05 13:23 | 54.40243 | 8.37509 | 38953 ft | 471 kts | 0° |
| 2026-05-05 13:23 | 54.46787 | 8.38295 | 38972 ft | 471 kts | 0° |
| 2026-05-05 13:24 | 54.53320 | 8.39082 | 38962 ft | 470 kts | 0° |
| 2026-05-05 13:24 | 54.59846 | 8.39871 | 38964 ft | 470 kts | 0° |
| 2026-05-05 13:25 | 54.66368 | 8.40662 | 38958 ft | 470 kts | 0° |
| 2026-05-05 13:25 | 54.72896 | 8.41455 | 38975 ft | 470 kts | 0° |
| 2026-05-05 13:26 | 54.79410 | 8.42251 | 38961 ft | 468 kts | 0° |
| 2026-05-05 13:26 | 54.85911 | 8.43047 | 38967 ft | 469 kts | 0° |
| 2026-05-05 13:27 | 54.92419 | 8.43846 | 38966 ft | 469 kts | 0° |
| 2026-05-05 13:27 | 54.98881 | 8.44642 | 38986 ft | 468 kts | 360° |
| 2026-05-05 13:28 | 55.05367 | 8.45444 | 38971 ft | 467 kts | 360° |
| 2026-05-05 13:28 | 55.11847 | 8.46248 | 38967 ft | 467 kts | 360° |
| 2026-05-05 13:29 | 55.18329 | 8.47055 | 38964 ft | 467 kts | 360° |
| 2026-05-05 13:29 | 55.24810 | 8.47863 | 38985 ft | 467 kts | 359° |
| 2026-05-05 13:30 | 55.31284 | 8.48675 | 38966 ft | 466 kts | 359° |
| 2026-05-05 13:30 | 55.37753 | 8.49488 | 38966 ft | 466 kts | 359° |
| 2026-05-05 13:31 | 55.44223 | 8.50304 | 38970 ft | 466 kts | 359° |
| 2026-05-05 13:31 | 55.50690 | 8.51121 | 38983 ft | 466 kts | 359° |
| 2026-05-05 13:32 | 55.57169 | 8.51944 | 38969 ft | 467 kts | 359° |
| 2026-05-05 13:32 | 55.63650 | 8.52770 | 38967 ft | 467 kts | 359° |
| 2026-05-05 13:33 | 55.70138 | 8.53598 | 38977 ft | 467 kts | 359° |
| 2026-05-05 13:33 | 55.76619 | 8.54429 | 38977 ft | 467 kts | 359° |
| 2026-05-05 13:34 | 55.83106 | 8.55263 | 38978 ft | 467 kts | 359° |
| 2026-05-05 13:34 | 55.89592 | 8.56100 | 38975 ft | 467 kts | 359° |
| 2026-05-05 13:35 | 55.96077 | 8.56940 | 38980 ft | 467 kts | 360° |
| 2026-05-05 13:35 | 56.02560 | 8.57781 | 38995 ft | 468 kts | 359° |
| 2026-05-05 13:36 | 56.09061 | 8.58629 | 38983 ft | 469 kts | 359° |
| 2026-05-05 13:36 | 56.15569 | 8.59480 | 38979 ft | 469 kts | 359° |
| 2026-05-05 13:37 | 56.22075 | 8.60334 | 38979 ft | 469 kts | 359° |
| 2026-05-05 13:37 | 56.28540 | 8.61186 | 38997 ft | 469 kts | 359° |
| 2026-05-05 13:38 | 56.35040 | 8.62045 | 38968 ft | 468 kts | 359° |
| 2026-05-05 13:38 | 56.41529 | 8.62905 | 38971 ft | 468 kts | 359° |
| 2026-05-05 13:39 | 56.48023 | 8.63769 | 38979 ft | 468 kts | 359° |
| 2026-05-05 13:39 | 56.54516 | 8.64636 | 39010 ft | 468 kts | 359° |
| 2026-05-05 13:40 | 56.61009 | 8.65505 | 38988 ft | 468 kts | 359° |
| 2026-05-05 13:40 | 56.67497 | 8.66377 | 38986 ft | 468 kts | 359° |
| 2026-05-05 13:41 | 56.73993 | 8.67253 | 38990 ft | 468 kts | 359° |
| 2026-05-05 13:41 | 56.80480 | 8.68131 | 38983 ft | 468 kts | 359° |
| 2026-05-05 13:42 | 56.86977 | 8.69014 | 38998 ft | 468 kts | 359° |
| 2026-05-05 13:42 | 56.93480 | 8.69900 | 38990 ft | 468 kts | 359° |
| 2026-05-05 13:43 | 56.99978 | 8.70789 | 38989 ft | 469 kts | 359° |
| 2026-05-05 13:43 | 57.06482 | 8.71682 | 38993 ft | 468 kts | 359° |
| 2026-05-05 13:44 | 57.12980 | 8.72576 | 38991 ft | 468 kts | 359° |
| 2026-05-05 13:44 | 57.19465 | 8.73472 | 38989 ft | 467 kts | 359° |
| 2026-05-05 13:45 | 57.25951 | 8.74372 | 38989 ft | 468 kts | 359° |
| 2026-05-05 13:45 | 57.32439 | 8.75274 | 38980 ft | 468 kts | 359° |
| 2026-05-05 13:46 | 57.38930 | 8.76180 | 38991 ft | 468 kts | 359° |
| 2026-05-05 13:46 | 57.45419 | 8.77089 | 38980 ft | 468 kts | 359° |
| 2026-05-05 13:47 | 57.51911 | 8.78002 | 38975 ft | 468 kts | 359° |
| 2026-05-05 13:47 | 57.58398 | 8.78917 | 38974 ft | 468 kts | 359° |
| 2026-05-05 13:48 | 57.64892 | 8.79836 | 38990 ft | 469 kts | 359° |
| 2026-05-05 13:48 | 57.71406 | 8.81071 | 38976 ft | 471 kts | 0° |
| 2026-05-05 13:49 | 57.77926 | 8.82374 | 38968 ft | 471 kts | 0° |
| 2026-05-05 13:49 | 57.84402 | 8.83662 | 38965 ft | 471 kts | 0° |
| 2026-05-05 13:50 | 57.90923 | 8.84963 | 38990 ft | 471 kts | 0° |
| 2026-05-05 13:50 | 57.97443 | 8.86269 | 38959 ft | 471 kts | 0° |
| 2026-05-05 13:51 | 58.03965 | 8.87580 | 38959 ft | 471 kts | 0° |
| 2026-05-05 13:51 | 58.10491 | 8.88896 | 38951 ft | 471 kts | 0° |
| 2026-05-05 13:52 | 58.16993 | 8.90212 | 38984 ft | 471 kts | 0° |
| 2026-05-05 13:52 | 58.23503 | 8.91535 | 38948 ft | 473 kts | 0° |
| 2026-05-05 13:53 | 58.30052 | 8.92872 | 38937 ft | 473 kts | 0° |
| 2026-05-05 13:53 | 58.36585 | 8.94549 | 38918 ft | 479 kts | 11° |
| 2026-05-05 13:54 | 58.39671 | 8.96905 | 38640 ft | 480 kts | 26° |
| 2026-05-05 13:54 | 58.42475 | 9.00431 | 37753 ft | 485 kts | 27° |
| 2026-05-05 13:54 | 58.45391 | 9.03772 | 36506 ft | 494 kts | 25° |
| 2026-05-05 13:54 | 58.48390 | 9.07104 | 35327 ft | 503 kts | 24° |
| 2026-05-05 13:55 | 58.51438 | 9.10471 | 34262 ft | 507 kts | 24° |
| 2026-05-05 13:55 | 58.54508 | 9.13863 | 32947 ft | 509 kts | 23° |
| 2026-05-05 13:55 | 58.57564 | 9.17256 | 32171 ft | 505 kts | 23° |
| 2026-05-05 13:55 | 58.60588 | 9.20619 | 31445 ft | 501 kts | 22° |
| 2026-05-05 13:56 | 58.63599 | 9.23973 | 30647 ft | 500 kts | 22° |
| 2026-05-05 13:56 | 58.66607 | 9.27329 | 29782 ft | 500 kts | 22° |
| 2026-05-05 13:56 | 58.69606 | 9.30683 | 28986 ft | 497 kts | 22° |
| 2026-05-05 13:56 | 58.72578 | 9.34015 | 28285 ft | 493 kts | 22° |
| 2026-05-05 13:57 | 58.75524 | 9.37325 | 27621 ft | 488 kts | 22° |
| 2026-05-05 13:57 | 58.78436 | 9.40605 | 26985 ft | 483 kts | 22° |
| 2026-05-05 13:57 | 58.81320 | 9.43859 | 26364 ft | 478 kts | 22° |
| 2026-05-05 13:57 | 58.84176 | 9.47087 | 25763 ft | 473 kts | 22° |
| 2026-05-05 13:58 | 58.87001 | 9.50286 | 25174 ft | 468 kts | 22° |
| 2026-05-05 13:58 | 58.89799 | 9.53461 | 24605 ft | 464 kts | 22° |
| 2026-05-05 13:58 | 58.92533 | 9.56569 | 24019 ft | 461 kts | 22° |
| 2026-05-05 13:58 | 58.95296 | 9.59715 | 23363 ft | 460 kts | 22° |
| 2026-05-05 13:59 | 59.00755 | 9.65947 | 22198 ft | 452 kts | 21° |
| 2026-05-05 13:59 | 59.03451 | 9.69035 | 21634 ft | 447 kts | 21° |
| 2026-05-05 14:00 | 59.08766 | 9.75138 | 20502 ft | 440 kts | 21° |
| 2026-05-05 14:00 | 59.10535 | 9.77208 | 20122 ft | 440 kts | 24° |
| 2026-05-05 14:00 | 59.13916 | 9.81845 | 18727 ft | 455 kts | 27° |
| 2026-05-05 14:00 | 59.16522 | 9.85434 | 17864 ft | 458 kts | 27° |
| 2026-05-05 14:01 | 59.19108 | 9.88970 | 17214 ft | 451 kts | 26° |
| 2026-05-05 14:01 | 59.21628 | 9.92406 | 16942 ft | 436 kts | 26° |
| 2026-05-05 14:01 | 59.24099 | 9.95768 | 16449 ft | 430 kts | 27° |
| 2026-05-05 14:01 | 59.25716 | 9.97971 | 16126 ft | 425 kts | 28° |
| 2026-05-05 14:02 | 59.28934 | 10.02366 | 15370 ft | 417 kts | 28° |
| 2026-05-05 14:02 | 59.30499 | 10.04507 | 15073 ft | 412 kts | 29° |
| 2026-05-05 14:02 | 59.32823 | 10.07690 | 14613 ft | 405 kts | 29° |
| 2026-05-05 14:02 | 59.35115 | 10.10836 | 14130 ft | 399 kts | 30° |
| 2026-05-05 14:03 | 59.37369 | 10.13932 | 13650 ft | 393 kts | 30° |
| 2026-05-05 14:03 | 59.39593 | 10.16994 | 13130 ft | 387 kts | 30° |
| 2026-05-05 14:03 | 59.41780 | 10.20009 | 12659 ft | 381 kts | 31° |
| 2026-05-05 14:03 | 59.43929 | 10.22975 | 12219 ft | 374 kts | 31° |
| 2026-05-05 14:04 | 59.46040 | 10.25896 | 11784 ft | 368 kts | 31° |
| 2026-05-05 14:04 | 59.48117 | 10.28774 | 11340 ft | 363 kts | 32° |
| 2026-05-05 14:04 | 59.50163 | 10.31611 | 11004 ft | 355 kts | 31° |
| 2026-05-05 14:04 | 59.52154 | 10.34376 | 10829 ft | 347 kts | 31° |
| 2026-05-05 14:05 | 59.54115 | 10.37106 | 10656 ft | 342 kts | 31° |
| 2026-05-05 14:05 | 59.56026 | 10.39767 | 10488 ft | 330 kts | 31° |
| 2026-05-05 14:05 | 59.57875 | 10.42349 | 10342 ft | 322 kts | 31° |
| 2026-05-05 14:05 | 59.59695 | 10.44892 | 10200 ft | 320 kts | 31° |
| 2026-05-05 14:06 | 59.61504 | 10.47423 | 10022 ft | 318 kts | 31° |
| 2026-05-05 14:06 | 59.63309 | 10.49950 | 9818 ft | 318 kts | 32° |
| 2026-05-05 14:06 | 59.65110 | 10.52478 | 9454 ft | 318 kts | 32° |
| 2026-05-05 14:06 | 59.66910 | 10.55006 | 9089 ft | 316 kts | 32° |
| 2026-05-05 14:07 | 59.68670 | 10.57483 | 8752 ft | 305 kts | 32° |
| 2026-05-05 14:07 | 59.70367 | 10.59876 | 8451 ft | 295 kts | 32° |
| 2026-05-05 14:07 | 59.72010 | 10.62193 | 8162 ft | 285 kts | 31° |
| 2026-05-05 14:07 | 59.73602 | 10.64440 | 7860 ft | 277 kts | 31° |
| 2026-05-05 14:08 | 59.75145 | 10.66624 | 7661 ft | 269 kts | 31° |
| 2026-05-05 14:08 | 59.76662 | 10.68770 | 7407 ft | 267 kts | 31° |
| 2026-05-05 14:08 | 59.78169 | 10.70903 | 7141 ft | 266 kts | 31° |
| 2026-05-05 14:08 | 59.79649 | 10.73002 | 6874 ft | 265 kts | 32° |
| 2026-05-05 14:09 | 59.81173 | 10.75168 | 6602 ft | 265 kts | 31° |
| 2026-05-05 14:09 | 59.82671 | 10.77297 | 6312 ft | 264 kts | 31° |
| 2026-05-05 14:09 | 59.84162 | 10.79420 | 6035 ft | 263 kts | 31° |
| 2026-05-05 14:09 | 59.85633 | 10.81522 | 5797 ft | 257 kts | 31° |
| 2026-05-05 14:10 | 59.87064 | 10.83562 | 5646 ft | 249 kts | 31° |
| 2026-05-05 14:10 | 59.88445 | 10.85534 | 5544 ft | 241 kts | 31° |
| 2026-05-05 14:10 | 59.89800 | 10.87468 | 5405 ft | 238 kts | 31° |
| 2026-05-05 14:10 | 59.91143 | 10.89387 | 5289 ft | 237 kts | 30° |
| 2026-05-05 14:11 | 59.92434 | 10.91236 | 5152 ft | 237 kts | 31° |
| 2026-05-05 14:11 | 59.93755 | 10.93131 | 5038 ft | 230 kts | 31° |
| 2026-05-05 14:11 | 59.95035 | 10.94972 | 4910 ft | 223 kts | 31° |
| 2026-05-05 14:11 | 59.96275 | 10.96756 | 4757 ft | 217 kts | 31° |
| 2026-05-05 14:12 | 59.97503 | 10.98469 | 4623 ft | 214 kts | 26° |
| 2026-05-05 14:12 | 59.98810 | 10.99823 | 4470 ft | 211 kts | 17° |
| 2026-05-05 14:12 | 60.00186 | 11.00785 | 4221 ft | 209 kts | 11° |
| 2026-05-05 14:12 | 60.01578 | 11.01602 | 3972 ft | 209 kts | 11° |
| 2026-05-05 14:13 | 60.02970 | 11.02398 | 3736 ft | 209 kts | 12° |
| 2026-05-05 14:13 | 60.04350 | 11.03191 | 3461 ft | 208 kts | 12° |
| 2026-05-05 14:13 | 60.05714 | 11.03971 | 3217 ft | 202 kts | 11° |
| 2026-05-05 14:13 | 60.07032 | 11.04729 | 2938 ft | 193 kts | 11° |
| 2026-05-05 14:14 | 60.08294 | 11.05451 | 2677 ft | 179 kts | 11° |
| 2026-05-05 14:14 | 60.09424 | 11.06100 | 2437 ft | 163 kts | 11° |
| 2026-05-05 14:14 | 60.10501 | 11.06711 | 2221 ft | 160 kts | 10° |
| 2026-05-05 14:14 | 60.11566 | 11.07332 | 1974 ft | 158 kts | 9° |
| 2026-05-05 14:15 | 60.12568 | 11.07909 | 1769 ft | 143 kts | 9° |
| 2026-05-05 14:15 | 60.13503 | 11.08440 | 1572 ft | 137 kts | 9° |
| 2026-05-05 14:15 | 60.14418 | 11.08965 | 1358 ft | 137 kts | 11° |
| 2026-05-05 14:15 | 60.15340 | 11.09498 | 1170 ft | 139 kts | 11° |
| 2026-05-05 14:16 | 60.16269 | 11.10046 | 995 ft | 138 kts | 11° |
| 2026-05-05 14:16 | 60.17182 | 11.10568 | 817 ft | 135 kts | 10° |
| 2026-05-05 14:16 | 60.18059 | 11.11070 | 685 ft | 122 kts | 9° |
| 2026-05-05 14:16 | 60.18796 | 11.11482 | 684 ft | 98 kts | 16° |
| 2026-05-05 14:17 | 60.19229 | 11.11710 | 683 ft | 36 kts | 0° |
| 2026-05-05 14:17 | 60.19361 | 11.11609 | 683 ft | 17 kts | 303° |
| 2026-05-05 14:17 | 60.19379 | 11.11508 | 682 ft | 4 kts | 286° |
| 2026-05-05 14:17 | 60.19381 | 11.11491 | 681 ft | 1 kts | 286° |
| 2026-05-05 14:18 | 60.19383 | 11.11479 | 683 ft | 1 kts | 286° |
| 2026-05-05 14:18 | 60.19384 | 11.11474 | 684 ft | 0 kts | 286° |
| 2026-05-05 14:19 | 60.19384 | 11.11471 | 684 ft | 2 kts | 286° |
| 2026-05-05 14:19 | 60.19394 | 11.11406 | 679 ft | 8 kts | 287° |
| 2026-05-05 14:20 | 60.19412 | 11.11280 | 683 ft | 10 kts | 286° |
| 2026-05-05 14:20 | 60.19439 | 11.11095 | 684 ft | 17 kts | 286° |
| 2026-05-05 14:20 | 60.19468 | 11.10888 | 683 ft | 15 kts | 286° |
| 2026-05-05 14:20 | 60.19497 | 11.10688 | 684 ft | 14 kts | 286° |
| 2026-05-05 14:21 | 60.19523 | 11.10508 | 682 ft | 12 kts | 286° |
| 2026-05-05 14:21 | 60.19558 | 11.10398 | 687 ft | 8 kts | 336° |
| 2026-05-05 14:21 | 60.19579 | 11.10337 | 684 ft | 4 kts | 287° |
| 2026-05-05 14:21 | 60.19588 | 11.10279 | 686 ft | 6 kts | 285° |
| 2026-05-05 14:22 | 60.19600 | 11.10193 | 682 ft | 2 kts | 286° |
| 2026-05-05 14:22 | 60.19601 | 11.10183 | 685 ft | 0 kts | 286° |